createdAt,value
2023-03-29T00:00:09.508Z,2.2
2023-03-29T00:03:10.358Z,2.2
2023-03-29T00:06:09.707Z,2.2
2023-03-29T00:09:09.494Z,2.2
2023-03-29T00:12:09.492Z,2.2
2023-03-29T00:15:09.566Z,2.2
2023-03-29T00:18:09.889Z,2.2
2023-03-29T00:21:10.487Z,2.1
2023-03-29T00:24:09.538Z,2.1
2023-03-29T00:27:09.536Z,2.1
2023-03-29T00:30:09.629Z,2
2023-03-29T00:33:09.784Z,1.9
2023-03-29T00:36:09.953Z,2
2023-03-29T00:39:09.570Z,1.9
2023-03-29T00:42:09.537Z,1.9
2023-03-29T00:45:09.612Z,1.9
2023-03-29T00:48:10.027Z,1.9
2023-03-29T00:51:13.105Z,1.8
2023-03-29T00:54:09.473Z,1.8
2023-03-29T00:57:09.766Z,1.8
2023-03-29T01:00:09.544Z,1.9
2023-03-29T01:03:10.303Z,2
2023-03-29T01:06:09.495Z,2.1
2023-03-29T01:09:09.636Z,2.4
2023-03-29T01:12:09.518Z,2.7
2023-03-29T01:15:09.544Z,3.2
2023-03-29T01:18:09.820Z,3.3
2023-03-29T01:21:10.227Z,3.5
2023-03-29T01:24:09.567Z,3.5
2023-03-29T01:27:09.719Z,3.4
2023-03-29T01:30:09.716Z,3.2
2023-03-29T01:33:09.822Z,3
2023-03-29T01:36:09.686Z,2.9
2023-03-29T01:39:09.533Z,2.7
2023-03-29T01:42:09.499Z,2.6
2023-03-29T01:45:09.552Z,2.5
2023-03-29T01:48:09.825Z,2.4
2023-03-29T01:51:10.690Z,2.6
2023-03-29T01:54:09.536Z,2.9
2023-03-29T01:57:09.763Z,3.4
2023-03-29T02:00:09.629Z,3.7
2023-03-29T02:03:10.291Z,3.8
2023-03-29T02:06:09.496Z,3.9
2023-03-29T02:09:09.480Z,3.9
2023-03-29T02:12:09.525Z,4.1
2023-03-29T02:15:09.678Z,4.2
2023-03-29T02:18:09.873Z,4.2
2023-03-29T02:21:10.457Z,4.3
2023-03-29T02:24:09.484Z,4.4
2023-03-29T02:27:09.508Z,4.4
2023-03-29T02:30:09.607Z,4.4
2023-03-29T02:33:09.773Z,4.6
2023-03-29T02:36:09.845Z,4.6
2023-03-29T02:39:09.550Z,4.6
2023-03-29T02:42:09.527Z,4.5
2023-03-29T02:45:09.550Z,4.4
2023-03-29T02:48:09.821Z,4.4
2023-03-29T02:51:10.525Z,4.4
2023-03-29T02:54:09.536Z,4.4
2023-03-29T02:57:09.873Z,4.4
2023-03-29T03:00:09.579Z,4.4
2023-03-29T03:03:11.661Z,4.4
2023-03-29T03:06:09.499Z,4.5
2023-03-29T03:09:09.504Z,4.4
2023-03-29T03:12:09.541Z,4.4
2023-03-29T03:15:09.517Z,4.3
2023-03-29T03:18:09.839Z,4.3
2023-03-29T03:21:10.248Z,4.4
2023-03-29T03:24:09.478Z,4.4
2023-03-29T03:27:09.489Z,4.4
2023-03-29T03:30:09.651Z,4.4
2023-03-29T03:33:09.744Z,4.4
2023-03-29T03:36:09.910Z,4.4
2023-03-29T03:39:09.556Z,4.4
2023-03-29T03:42:12.692Z,4.4
2023-03-29T03:45:09.553Z,4.3
2023-03-29T03:48:09.832Z,4.2
2023-03-29T03:51:10.646Z,4.2
2023-03-29T03:54:09.553Z,4.2
2023-03-29T03:57:09.761Z,4.2
2023-03-29T04:00:09.689Z,4.1
2023-03-29T04:03:10.297Z,4
2023-03-29T04:06:09.510Z,3.9
2023-03-29T04:09:09.655Z,3.9
2023-03-29T04:12:09.531Z,3.9
2023-03-29T04:15:09.488Z,4
2023-03-29T04:18:10.192Z,4.1
2023-03-29T04:21:10.283Z,4.1
2023-03-29T04:24:09.518Z,4.1
2023-03-29T04:27:09.513Z,4.1
2023-03-29T04:30:09.565Z,4.1
2023-03-29T04:33:09.933Z,4.1
2023-03-29T04:36:09.897Z,4.1
2023-03-29T04:39:09.500Z,4.1
2023-03-29T04:42:09.607Z,4.1
2023-03-29T04:45:10.046Z,4.1
2023-03-29T04:48:10.044Z,4.1
2023-03-29T04:51:10.324Z,4.1
2023-03-29T04:54:09.504Z,4.1
2023-03-29T04:57:09.787Z,4.1
2023-03-29T05:00:09.587Z,4.1
2023-03-29T05:03:10.132Z,4.1
2023-03-29T05:06:09.780Z,4.1
2023-03-29T05:09:09.586Z,4.1
2023-03-29T05:12:09.603Z,4.1
2023-03-29T05:15:09.604Z,4.1
2023-03-29T05:18:09.901Z,4.1
2023-03-29T05:21:10.465Z,4.1
2023-03-29T05:24:09.572Z,4.1
2023-03-29T05:27:09.576Z,4.1
2023-03-29T05:30:09.621Z,4.1
2023-03-29T05:33:10.075Z,4.1
2023-03-29T05:36:10.012Z,4.1
2023-03-29T05:39:09.620Z,4.2
2023-03-29T05:42:09.585Z,4.2
2023-03-29T05:45:09.646Z,4.3
2023-03-29T05:48:09.990Z,4.4
2023-03-29T05:51:10.436Z,4.4
2023-03-29T05:54:09.556Z,4.5
2023-03-29T05:57:09.909Z,4.6
2023-03-29T06:00:09.635Z,4.6
2023-03-29T06:03:30.600Z,4.6
2023-03-29T06:06:09.694Z,4.7
2023-03-29T06:09:09.567Z,4.7
2023-03-29T06:12:09.587Z,4.9
2023-03-29T06:15:09.681Z,4.9
2023-03-29T06:18:09.980Z,5
2023-03-29T06:21:11.030Z,5.1
2023-03-29T06:24:10.039Z,5.2
2023-03-29T06:27:09.617Z,5.3
2023-03-29T06:30:09.709Z,5.4
2023-03-29T06:33:10.025Z,5.5
2023-03-29T06:36:09.813Z,5.6
2023-03-29T06:39:09.605Z,5.7
2023-03-29T06:42:28.908Z,5.9
2023-03-29T06:45:09.696Z,6.1
2023-03-29T06:48:10.225Z,6.1
2023-03-29T06:51:10.878Z,6.1
2023-03-29T06:54:09.921Z,6
2023-03-29T06:57:10.136Z,6
2023-03-29T07:00:10.245Z,6.1
2023-03-29T07:03:09.988Z,6.2
2023-03-29T07:06:09.584Z,6.4
2023-03-29T07:09:09.916Z,6.6
2023-03-29T07:12:09.644Z,6.8
2023-03-29T07:15:09.695Z,7
2023-03-29T07:18:09.994Z,7.2
2023-03-29T07:21:10.583Z,7.4
2023-03-29T07:24:09.565Z,7.5
2023-03-29T07:27:13.749Z,7.6
2023-03-29T07:30:09.693Z,7.7
2023-03-29T07:33:10.350Z,7.7
2023-03-29T07:36:09.912Z,7.7
2023-03-29T07:39:09.617Z,7.8
2023-03-29T07:42:09.484Z,7.9
2023-03-29T07:45:09.633Z,8
2023-03-29T07:48:10.051Z,8.2
2023-03-29T07:51:10.649Z,8.4
2023-03-29T07:54:09.642Z,8.3
2023-03-29T07:57:09.966Z,8.4
2023-03-29T08:00:09.750Z,8.3
2023-03-29T08:03:10.162Z,8.4
2023-03-29T08:06:09.613Z,8.6
2023-03-29T08:09:09.583Z,8.7
2023-03-29T08:12:09.547Z,8.8
2023-03-29T08:15:09.788Z,9
2023-03-29T08:18:09.961Z,9.1
2023-03-29T08:21:11.428Z,9.1
2023-03-29T08:24:09.627Z,9.1
2023-03-29T08:27:09.511Z,9.1
2023-03-29T08:30:09.694Z,9.3
2023-03-29T08:33:09.784Z,9.4
2023-03-29T08:36:09.963Z,9.4
2023-03-29T08:39:09.537Z,9.4
2023-03-29T08:42:09.544Z,9.5
2023-03-29T08:45:09.718Z,9.6
2023-03-29T08:48:09.786Z,9.8
2023-03-29T08:51:13.621Z,9.8
2023-03-29T08:54:09.652Z,9.8
2023-03-29T08:57:09.874Z,9.8
2023-03-29T09:00:09.632Z,9.7
2023-03-29T09:03:10.192Z,9.4
2023-03-29T09:06:09.725Z,9.1
2023-03-29T09:09:09.593Z,9.1
2023-03-29T09:12:09.622Z,9
2023-03-29T09:15:09.596Z,9.1
2023-03-29T09:18:09.795Z,9.2
2023-03-29T09:21:10.654Z,9.3
2023-03-29T09:24:09.651Z,9.3
2023-03-29T09:27:09.665Z,9.2
2023-03-29T09:30:09.621Z,9
2023-03-29T09:33:09.988Z,9
2023-03-29T09:36:09.805Z,8.9
2023-03-29T09:39:09.642Z,9
2023-03-29T09:42:09.603Z,9.1
2023-03-29T09:45:09.662Z,9.3
2023-03-29T09:48:09.890Z,9.4
2023-03-29T09:51:10.443Z,9.4
2023-03-29T09:54:09.814Z,9.5
2023-03-29T09:57:09.839Z,9.7
2023-03-29T10:00:09.817Z,9.7
2023-03-29T10:03:12.908Z,9.8
2023-03-29T10:06:09.700Z,10.1
2023-03-29T10:09:09.590Z,10.3
2023-03-29T10:12:09.548Z,10.3
2023-03-29T10:15:27.093Z,10.2
2023-03-29T10:18:10.095Z,10.3
2023-03-29T10:21:10.602Z,10.4
2023-03-29T10:24:09.600Z,10.3
2023-03-29T10:27:09.591Z,10.1
2023-03-29T10:30:09.635Z,10.3
2023-03-29T10:33:10.125Z,10.2
2023-03-29T10:36:09.896Z,10.3
2023-03-29T10:39:14.274Z,10.4
2023-03-29T10:42:09.584Z,10.6
2023-03-29T10:45:09.589Z,10.6
2023-03-29T10:48:09.941Z,10.9
2023-03-29T10:51:10.718Z,11.1
2023-03-29T10:54:09.588Z,11.1
2023-03-29T10:57:09.872Z,11
2023-03-29T11:00:09.727Z,10.7
2023-03-29T11:03:10.220Z,10.6
2023-03-29T11:06:09.576Z,10.7
2023-03-29T11:09:09.575Z,11.1
2023-03-29T11:12:24.904Z,11.7
2023-03-29T11:15:09.661Z,13.1
2023-03-29T11:18:10.097Z,13.7
2023-03-29T11:21:15.247Z,14.7
2023-03-29T11:24:09.887Z,14.8
2023-03-29T11:27:09.533Z,14.6
2023-03-29T11:30:09.720Z,14.7
2023-03-29T11:33:09.828Z,14.7
2023-03-29T11:36:10.053Z,14.7
2023-03-29T11:39:09.669Z,14.3
2023-03-29T11:42:09.653Z,14.8
2023-03-29T11:45:09.587Z,15.5
2023-03-29T11:48:09.992Z,16.4
2023-03-29T11:51:10.201Z,15.9
2023-03-29T11:54:09.666Z,15
2023-03-29T11:57:09.904Z,14.5
2023-03-29T12:00:09.801Z,14.1
2023-03-29T12:03:10.367Z,13.9
2023-03-29T12:06:09.640Z,14.2
2023-03-29T12:09:09.669Z,14.6
2023-03-29T12:12:09.626Z,15.8
2023-03-29T12:15:09.629Z,16.4
2023-03-29T12:18:10.277Z,16.9
2023-03-29T12:21:10.170Z,17.1
2023-03-29T12:24:09.605Z,17.2
2023-03-29T12:27:09.715Z,16.8
2023-03-29T12:30:09.811Z,16.3
2023-03-29T12:33:09.722Z,15.8
2023-03-29T12:36:10.140Z,15.3
2023-03-29T12:39:09.561Z,14.8
2023-03-29T12:42:09.603Z,14.4
2023-03-29T12:45:09.625Z,14.4
2023-03-29T12:48:10.021Z,14.4
2023-03-29T12:51:09.658Z,14.7
2023-03-29T12:54:09.645Z,14.7
2023-03-29T12:57:09.965Z,14.7
2023-03-29T13:00:09.838Z,14.6
2023-03-29T13:03:10.046Z,14.3
2023-03-29T13:06:10.702Z,14
2023-03-29T13:09:09.593Z,14
2023-03-29T13:12:09.649Z,13.9
2023-03-29T13:15:09.549Z,14.1
2023-03-29T13:18:12.638Z,14.3
2023-03-29T13:21:09.609Z,14.3
2023-03-29T13:24:09.619Z,14.3
2023-03-29T13:27:09.555Z,14.3
2023-03-29T13:30:09.769Z,14.3
2023-03-29T13:33:10.038Z,14.3
2023-03-29T13:36:10.988Z,14.3
2023-03-29T13:39:09.626Z,14.1
2023-03-29T13:42:09.595Z,14.1
2023-03-29T13:45:09.568Z,13.9
2023-03-29T13:48:15.183Z,13.8
2023-03-29T13:51:09.629Z,13.9
2023-03-29T13:54:09.660Z,13.9
2023-03-29T13:57:10.305Z,13.9
2023-03-29T14:00:09.675Z,14.2
2023-03-29T14:03:09.864Z,13.9
2023-03-29T14:06:10.822Z,13.7
2023-03-29T14:09:09.642Z,13.4
2023-03-29T14:12:09.660Z,13.2
2023-03-29T14:15:09.794Z,12.9
2023-03-29T14:18:10.371Z,12.8
2023-03-29T14:21:09.660Z,12.7
2023-03-29T14:24:09.529Z,12.4
2023-03-29T14:27:09.544Z,12.2
2023-03-29T14:30:09.737Z,12.1
2023-03-29T14:33:09.872Z,12.1
2023-03-29T14:36:11.664Z,12
2023-03-29T14:39:09.723Z,11.9
2023-03-29T14:42:09.609Z,11.9
2023-03-29T14:45:09.644Z,11.7
2023-03-29T14:48:09.902Z,11.7
2023-03-29T14:51:09.713Z,11.7
2023-03-29T14:54:09.629Z,11.7
2023-03-29T14:57:09.905Z,11.7
2023-03-29T15:00:09.770Z,11.6
2023-03-29T15:03:10.654Z,11.6
2023-03-29T15:06:10.476Z,11.6
2023-03-29T15:09:15.940Z,11.4
2023-03-29T15:12:09.607Z,11.3
2023-03-29T15:15:09.673Z,11.2
2023-03-29T15:18:10.006Z,11.2
2023-03-29T15:21:09.689Z,11.1
2023-03-29T15:24:10.500Z,11
2023-03-29T15:27:25.039Z,11
2023-03-29T15:30:09.699Z,11.1
2023-03-29T15:33:10.311Z,11.1
2023-03-29T15:36:11.468Z,11.1
2023-03-29T15:39:09.725Z,11.1
2023-03-29T15:42:09.577Z,11.2
2023-03-29T15:45:09.581Z,11.3
2023-03-29T15:48:09.852Z,11.3
2023-03-29T15:51:15.402Z,11.4
2023-03-29T15:54:09.754Z,11.5
2023-03-29T15:57:10.402Z,11.4
2023-03-29T16:00:09.681Z,11.5
2023-03-29T16:03:09.936Z,11.4
2023-03-29T16:06:10.562Z,11.4
2023-03-29T16:09:09.570Z,11.4
2023-03-29T16:12:09.611Z,11.4
2023-03-29T16:15:09.682Z,11.6
2023-03-29T16:18:09.946Z,11.6
2023-03-29T16:21:12.190Z,11.6
2023-03-29T16:24:09.580Z,11.6
2023-03-29T16:27:09.579Z,11.6
2023-03-29T16:30:09.604Z,11.6
2023-03-29T16:33:09.871Z,11.5
2023-03-29T16:36:10.901Z,11.4
2023-03-29T16:39:09.517Z,11.5
2023-03-29T16:42:09.544Z,11.6
2023-03-29T16:45:09.660Z,11.6
2023-03-29T16:48:10.815Z,11.5
2023-03-29T16:51:10.092Z,11.4
2023-03-29T16:54:09.670Z,11.3
2023-03-29T16:57:09.803Z,11.3
2023-03-29T17:00:09.668Z,11.1
2023-03-29T17:03:10.059Z,11.1
2023-03-29T17:06:10.917Z,11.1
2023-03-29T17:09:09.698Z,10.9
2023-03-29T17:12:09.549Z,10.9
2023-03-29T17:15:10.007Z,10.8
2023-03-29T17:18:09.891Z,10.8
2023-03-29T17:21:09.512Z,10.8
2023-03-29T17:24:09.600Z,10.8
2023-03-29T17:27:09.497Z,10.7
2023-03-29T17:30:09.615Z,10.8
2023-03-29T17:33:09.886Z,10.7
2023-03-29T17:36:11.737Z,10.6
2023-03-29T17:39:11.781Z,10.6
2023-03-29T17:42:09.547Z,10.6
2023-03-29T17:45:09.553Z,10.6
2023-03-29T17:48:13.172Z,10.5
2023-03-29T17:51:09.466Z,10.5
2023-03-29T17:54:09.553Z,10.4
2023-03-29T17:57:09.872Z,10.4
2023-03-29T18:00:09.647Z,10.4
2023-03-29T18:03:09.927Z,10.4
2023-03-29T18:06:10.417Z,10.3
2023-03-29T18:09:09.575Z,10.3
2023-03-29T18:12:09.544Z,10.3
2023-03-29T18:15:10.250Z,10.1
2023-03-29T18:18:10.079Z,10
2023-03-29T18:21:09.551Z,9.9
2023-03-29T18:24:09.522Z,9.8
2023-03-29T18:27:09.531Z,9.7
2023-03-29T18:30:09.675Z,9.6
2023-03-29T18:33:09.919Z,9.4
2023-03-29T18:36:15.183Z,9.3
2023-03-29T18:39:09.574Z,9.2
2023-03-29T18:42:12.150Z,9.1
2023-03-29T18:45:09.518Z,8.9
2023-03-29T18:48:09.736Z,8.9
2023-03-29T18:51:12.547Z,8.9
2023-03-29T18:54:09.618Z,9
2023-03-29T18:57:10.111Z,9.1
2023-03-29T19:00:09.595Z,9.2
2023-03-29T19:03:10.237Z,9.1
2023-03-29T19:06:10.706Z,9.1
2023-03-29T19:09:09.606Z,9
2023-03-29T19:12:09.497Z,8.9
2023-03-29T19:15:09.570Z,8.9
2023-03-29T19:18:09.708Z,8.9
2023-03-29T19:21:09.539Z,8.9
2023-03-29T19:24:09.552Z,8.9
2023-03-29T19:27:11.369Z,8.8
2023-03-29T19:30:09.540Z,8.8
2023-03-29T19:33:09.813Z,8.7
2023-03-29T19:36:10.819Z,8.6
2023-03-29T19:39:09.626Z,8.6
2023-03-29T19:42:09.454Z,8.6
2023-03-29T19:45:09.582Z,8.6
2023-03-29T19:48:24.750Z,8.6
2023-03-29T19:51:09.538Z,8.6
2023-03-29T19:54:09.566Z,8.6
2023-03-29T19:57:09.760Z,8.6
2023-03-29T20:00:09.661Z,8.6
2023-03-29T20:03:10.155Z,8.7
2023-03-29T20:06:09.588Z,8.7
2023-03-29T20:09:09.554Z,8.6
2023-03-29T20:12:09.650Z,8.6
2023-03-29T20:15:09.511Z,8.6
2023-03-29T20:18:09.907Z,8.6
2023-03-29T20:21:10.353Z,8.5
2023-03-29T20:24:09.496Z,8.5
2023-03-29T20:27:09.541Z,8.4
2023-03-29T20:30:09.493Z,8.4
2023-03-29T20:33:09.937Z,8.3
2023-03-29T20:36:10.286Z,8.4
2023-03-29T20:39:09.543Z,8.3
2023-03-29T20:42:09.488Z,8.3
2023-03-29T20:45:09.903Z,8.3
2023-03-29T20:48:09.879Z,8.2
2023-03-29T20:51:10.497Z,8.1
2023-03-29T20:54:09.565Z,8.1
2023-03-29T20:57:09.762Z,8.1
2023-03-29T21:00:09.492Z,8.1
2023-03-29T21:03:10.403Z,8.1
2023-03-29T21:06:09.528Z,8.1
2023-03-29T21:09:09.504Z,8.1
2023-03-29T21:12:09.505Z,8.1
2023-03-29T21:15:09.584Z,8.2
2023-03-29T21:18:09.812Z,8.3
2023-03-29T21:21:10.075Z,8.3
2023-03-29T21:24:09.544Z,8.3
2023-03-29T21:27:09.513Z,8.3
2023-03-29T21:30:09.538Z,8.3
2023-03-29T21:33:09.968Z,8.3
2023-03-29T21:36:09.843Z,8.3
2023-03-29T21:39:09.500Z,8.3
2023-03-29T21:42:09.482Z,8.3
2023-03-29T21:45:09.560Z,8.3
2023-03-29T21:48:09.832Z,8.3
2023-03-29T21:51:10.549Z,8.3
2023-03-29T21:54:09.532Z,8.3
2023-03-29T21:57:09.815Z,8.3
2023-03-29T22:00:10.157Z,8.3
2023-03-29T22:03:09.767Z,8.4
2023-03-29T22:06:09.620Z,8.3
2023-03-29T22:09:09.617Z,8.3
2023-03-29T22:12:09.596Z,8.3
2023-03-29T22:15:09.530Z,8.3
2023-03-29T22:18:09.845Z,8.3
2023-03-29T22:21:10.386Z,8.3
2023-03-29T22:24:09.607Z,8.3
2023-03-29T22:27:09.498Z,8.3
2023-03-29T22:30:09.555Z,8.4
2023-03-29T22:33:09.841Z,8.4
2023-03-29T22:36:09.783Z,8.3
2023-03-29T22:39:09.661Z,8.3
2023-03-29T22:42:09.550Z,8.3
2023-03-29T22:45:09.604Z,8.3
2023-03-29T22:48:09.824Z,8.3
2023-03-29T22:51:10.292Z,8.3
2023-03-29T22:54:09.482Z,8.3
2023-03-29T22:57:09.686Z,8.3
2023-03-29T23:00:09.567Z,8.3
2023-03-29T23:03:09.749Z,8.3
2023-03-29T23:06:09.484Z,8.3
2023-03-29T23:09:09.506Z,8.3
2023-03-29T23:12:09.477Z,8.2
2023-03-29T23:15:09.533Z,8.2
2023-03-29T23:18:09.842Z,8.2
2023-03-29T23:21:10.876Z,8.1
2023-03-29T23:24:09.523Z,8.1
2023-03-29T23:27:09.560Z,7.9
2023-03-29T23:30:09.586Z,7.9
2023-03-29T23:33:09.975Z,7.9
2023-03-29T23:36:10.071Z,7.8
2023-03-29T23:39:09.597Z,7.7
2023-03-29T23:42:09.518Z,7.8
2023-03-29T23:45:09.544Z,7.8
2023-03-29T23:48:09.661Z,7.8
2023-03-29T23:51:10.649Z,7.8
2023-03-29T23:54:09.575Z,7.8
2023-03-29T23:57:09.747Z,7.7
